Time;durP1;ratioP1;P1;durP2;ratioP2;P2;SDS_P1;SDS_P2;PMS_P1;PMS_P2;Temp;Humidity;BMP_temperature;BMP_pressure;BME280_temperature;BME280_humidity;BME280_pressure;Samples;Min_cycle;Max_cycle;Signal;HPM_P1;HPM_P2
2021/05/22 00:01:27;;;;;;;0.70;0.50;;;10.10;99.90;;;;;;5060327;28;20196;-79
2021/05/22 00:03:55;;;;;;;0.70;0.50;;;10.10;99.90;;;;;;5078913;28;20178;-79
2021/05/22 00:06:21;;;;;;;0.70;0.50;;;10.00;99.90;;;;;;5059203;28;20269;-79
2021/05/22 00:08:47;;;;;;;0.70;0.50;;;10.00;99.90;;;;;;5047488;28;20430;-79
2021/05/22 00:11:12;;;;;;;0.70;0.50;;;10.00;99.90;;;;;;5079085;28;20505;-78
2021/05/22 00:13:38;;;;;;;0.70;0.50;;;9.90;99.90;;;;;;5060042;28;20174;-79
2021/05/22 00:16:04;;;;;;;0.70;0.50;;;9.90;99.90;;;;;;5061921;28;20263;-79
2021/05/22 00:18:30;;;;;;;0.70;0.50;;;9.90;99.90;;;;;;5061868;28;20194;-78
2021/05/22 00:20:57;;;;;;;0.70;0.50;;;9.90;99.90;;;;;;5069616;28;20412;-79
2021/05/22 00:23:22;;;;;;;0.70;0.50;;;9.90;99.90;;;;;;5078722;28;20656;-79
2021/05/22 00:25:48;;;;;;;0.70;0.50;;;9.90;99.90;;;;;;5079027;28;20432;-79
2021/05/22 00:28:13;;;;;;;0.70;0.50;;;10.00;99.90;;;;;;5053575;28;20207;-79
2021/05/22 00:30:39;;;;;;;0.70;0.50;;;10.00;99.90;;;;;;5054145;28;20189;-79
2021/05/22 00:33:05;;;;;;;0.70;0.50;;;10.10;99.90;;;;;;5061511;28;20182;-79
2021/05/22 00:35:30;;;;;;;0.70;0.50;;;10.10;99.90;;;;;;5050480;28;20170;-80
2021/05/22 00:37:56;;;;;;;0.70;0.50;;;10.10;99.90;;;;;;5057733;28;20182;-79
2021/05/22 00:40:21;;;;;;;0.70;0.50;;;10.10;99.90;;;;;;5079432;28;20174;-79
2021/05/22 00:42:47;;;;;;;0.70;0.50;;;10.20;99.90;;;;;;5068982;28;20606;-79
2021/05/22 00:45:17;;;;;;;0.70;0.50;;;10.10;99.90;;;;;;5077159;28;20257;-80
2021/05/22 00:47:48;;;;;;;0.70;0.50;;;10.10;99.90;;;;;;5076140;28;20175;-79
2021/05/22 00:50:29;;;;;;;0.70;0.50;;;10.20;99.90;;;;;;5064080;28;20416;-79
2021/05/22 00:52:55;;;;;;;0.70;0.50;;;10.20;99.90;;;;;;5058312;28;20453;-79
2021/05/22 00:55:21;;;;;;;0.70;0.50;;;10.20;99.90;;;;;;5039158;28;20417;-80
2021/05/22 00:57:47;;;;;;;0.70;0.50;;;10.20;99.90;;;;;;5072624;28;20174;-79
2021/05/22 01:00:29;;;;;;;0.70;0.50;;;10.20;99.90;;;;;;5076860;28;20462;-79
2021/05/22 01:02:55;;;;;;;0.70;0.50;;;10.20;99.90;;;;;;5077363;28;20201;-79
2021/05/22 01:05:20;;;;;;;0.70;0.50;;;10.30;99.90;;;;;;5054496;28;20415;-79
2021/05/22 01:07:48;;;;;;;0.70;0.50;;;10.30;99.90;;;;;;5070648;28;20427;-79
2021/05/22 01:10:15;;;;;;;0.70;0.50;;;10.30;99.90;;;;;;5042614;28;20201;-79
2021/05/22 01:12:46;;;;;;;0.70;0.50;;;10.30;99.90;;;;;;5040096;28;20420;-80
2021/05/22 01:15:18;;;;;;;0.70;0.50;;;10.30;99.90;;;;;;5041135;28;20417;-81
2021/05/22 01:17:49;;;;;;;0.70;0.50;;;10.30;99.90;;;;;;5057902;28;20500;-79
2021/05/22 01:20:34;;;;;;;0.70;0.50;;;10.20;99.90;;;;;;5058260;28;20503;-79
2021/05/22 01:23:24;;;;;;;0.70;0.50;;;10.40;99.90;;;;;;5040205;28;20464;-79
2021/05/22 01:25:52;;;;;;;0.70;0.50;;;10.40;99.90;;;;;;5040781;28;20454;-79
2021/05/22 01:28:18;;;;;;;0.70;0.50;;;10.40;99.90;;;;;;5043010;28;20425;-80
2021/05/22 01:30:45;;;;;;;0.70;0.50;;;10.40;99.90;;;;;;5048595;28;20469;-79
2021/05/22 01:33:11;;;;;;;0.70;0.50;;;10.40;99.90;;;;;;5074475;28;20406;-79
2021/05/22 01:35:38;;;;;;;0.70;0.50;;;10.30;99.90;;;;;;5040079;28;20429;-79
2021/05/22 01:38:04;;;;;;;0.70;0.50;;;10.20;99.90;;;;;;5051865;28;20195;-80
2021/05/22 01:40:30;;;;;;;0.70;0.50;;;10.20;99.90;;;;;;5060177;28;20412;-79
2021/05/22 01:42:55;;;;;;;0.70;0.50;;;10.20;99.90;;;;;;5075577;28;20182;-79
2021/05/22 01:45:26;;;;;;;0.70;0.50;;;10.10;99.90;;;;;;5077095;28;20318;-79
2021/05/22 01:47:54;;;;;;;0.70;0.50;;;10.10;99.90;;;;;;5058713;28;20178;-79
2021/05/22 01:50:21;;;;;;;0.70;0.50;;;10.20;99.90;;;;;;5060676;28;20420;-79
2021/05/22 01:52:51;;;;;;;0.70;0.50;;;10.00;99.90;;;;;;5073760;28;20837;-79
2021/05/22 01:55:18;;;;;;;0.70;0.50;;;10.00;99.90;;;;;;5074797;28;20449;-80
2021/05/22 01:57:44;;;;;;;0.70;0.50;;;9.90;99.90;;;;;;5058362;28;20421;-78
2021/05/22 02:00:11;;;;;;;0.70;0.50;;;9.90;99.90;;;;;;5055766;28;20449;-79
2021/05/22 02:02:53;;;;;;;0.70;0.50;;;9.90;99.90;;;;;;5067983;28;20906;-79
2021/05/22 02:05:20;;;;;;;0.70;0.50;;;9.80;99.90;;;;;;5055679;28;20494;-79
2021/05/22 02:07:48;;;;;;;0.70;0.50;;;9.90;99.90;;;;;;5064771;28;20428;-79
2021/05/22 02:10:14;;;;;;;0.70;0.50;;;9.70;99.90;;;;;;5048579;28;20421;-78
2021/05/22 02:12:41;;;;;;;0.70;0.50;;;9.80;99.90;;;;;;5055166;28;20420;-79
2021/05/22 02:15:10;;;;;;;0.70;0.50;;;9.70;99.90;;;;;;5074748;28;20814;-79
2021/05/22 02:17:38;;;;;;;0.70;0.50;;;9.70;99.90;;;;;;5075343;28;20417;-79
2021/05/22 02:20:06;;;;;;;0.70;0.50;;;9.80;99.90;;;;;;5071648;28;20491;-79
2021/05/22 02:22:32;;;;;;;0.70;0.50;;;9.70;99.90;;;;;;5052468;28;20427;-79
2021/05/22 02:24:58;;;;;;;0.70;0.50;;;9.60;99.90;;;;;;5065415;28;20425;-79
2021/05/22 02:27:24;;;;;;;0.70;0.50;;;9.60;99.90;;;;;;5055805;28;20417;-79
2021/05/22 02:29:50;;;;;;;0.70;0.50;;;9.70;99.90;;;;;;5062862;28;20208;-79
2021/05/22 02:32:17;;;;;;;0.70;0.50;;;9.70;99.90;;;;;;5074210;28;20408;-79
2021/05/22 02:34:48;;;;;;;0.70;0.50;;;9.50;99.90;;;;;;5058550;28;20182;-80
2021/05/22 02:37:16;;;;;;;0.70;0.50;;;9.50;99.90;;;;;;5058655;28;20432;-79
2021/05/22 02:39:43;;;;;;;0.70;0.50;;;9.50;99.90;;;;;;5061863;28;20467;-79
2021/05/22 02:42:13;;;;;;;0.70;0.50;;;9.50;99.90;;;;;;5066841;28;20427;-80
2021/05/22 02:44:39;;;;;;;0.70;0.50;;;9.50;99.90;;;;;;5057830;28;20412;-79
2021/05/22 02:47:07;;;;;;;0.70;0.50;;;9.50;99.90;;;;;;5075642;28;20428;-79
2021/05/22 02:49:40;;;;;;;0.70;0.50;;;9.40;99.90;;;;;;5053947;28;20428;-79
2021/05/22 02:52:07;;;;;;;0.70;0.50;;;9.30;99.90;;;;;;5058446;28;20480;-79
2021/05/22 02:54:39;;;;;;;0.70;0.50;;;9.20;99.90;;;;;;5075856;28;20421;-80
2021/05/22 02:57:06;;;;;;;0.70;0.50;;;9.30;99.90;;;;;;5074486;28;20796;-79
2021/05/22 02:59:32;;;;;;;0.70;0.50;;;9.30;99.90;;;;;;5055670;28;20510;-80
2021/05/22 03:01:58;;;;;;;0.70;0.50;;;9.40;99.90;;;;;;5038170;28;20935;-80
2021/05/22 03:04:24;;;;;;;0.70;0.50;;;9.40;99.90;;;;;;5037981;28;20414;-78
2021/05/22 03:06:50;;;;;;;0.70;0.50;;;9.40;99.90;;;;;;5066939;28;20436;-79
2021/05/22 03:09:16;;;;;;;0.70;0.50;;;9.40;99.90;;;;;;5075019;28;20419;-78
2021/05/22 03:11:41;;;;;;;0.70;0.50;;;9.30;99.90;;;;;;5074495;28;20267;-78
2021/05/22 03:14:07;;;;;;;0.70;0.50;;;9.40;99.90;;;;;;5073820;28;20228;-78
2021/05/22 03:16:32;;;;;;;0.70;0.50;;;9.40;99.90;;;;;;5073701;28;20194;-79
2021/05/22 03:18:58;;;;;;;0.70;0.50;;;9.50;99.90;;;;;;5068439;28;20202;-79
2021/05/22 03:21:25;;;;;;;0.70;0.50;;;9.50;99.90;;;;;;5042264;28;20254;-78
2021/05/22 03:23:51;;;;;;;0.70;0.50;;;9.40;99.90;;;;;;5042011;28;20539;-79
2021/05/22 03:26:17;;;;;;;0.70;0.50;;;9.40;99.90;;;;;;5068168;28;20436;-78
2021/05/22 03:28:42;;;;;;;0.70;0.50;;;9.30;99.90;;;;;;5078161;28;20412;-81
2021/05/22 03:31:08;;;;;;;0.70;0.50;;;9.30;99.90;;;;;;5061285;28;20196;-79
2021/05/22 03:33:34;;;;;;;0.70;0.50;;;9.40;99.90;;;;;;5077359;28;20166;-79
2021/05/22 03:35:59;;;;;;;0.70;0.50;;;9.40;99.90;;;;;;5069805;28;20441;-79
2021/05/22 03:38:25;;;;;;;0.70;0.50;;;9.40;99.90;;;;;;5058084;28;20539;-80
2021/05/22 03:40:50;;;;;;;0.70;0.50;;;9.40;99.90;;;;;;5062437;28;20166;-79
2021/05/22 03:43:16;;;;;;;0.70;0.50;;;9.40;99.90;;;;;;5061351;28;20194;-80
2021/05/22 03:45:42;;;;;;;0.70;0.50;;;9.40;99.90;;;;;;5073850;28;20209;-80
2021/05/22 03:48:07;;;;;;;0.70;0.50;;;9.40;99.90;;;;;;5078691;28;20586;-79
2021/05/22 03:50:33;;;;;;;0.70;0.50;;;9.40;99.90;;;;;;5078723;28;20174;-79
2021/05/22 03:52:58;;;;;;;0.70;0.50;;;9.40;99.90;;;;;;5061652;28;20249;-79
2021/05/22 03:55:24;;;;;;;0.70;0.50;;;9.40;99.90;;;;;;5076014;28;20196;-80
2021/05/22 03:57:49;;;;;;;0.70;0.50;;;9.40;99.90;;;;;;5072352;28;20196;-80
2021/05/22 04:00:16;;;;;;;0.70;0.50;;;9.50;99.90;;;;;;5078667;28;20205;-78
2021/05/22 04:02:41;;;;;;;0.70;0.50;;;9.50;99.90;;;;;;5059392;28;20200;-78
2021/05/22 04:05:08;;;;;;;0.70;0.50;;;9.50;99.90;;;;;;5059674;28;20871;-78
2021/05/22 04:07:34;;;;;;;0.70;0.50;;;9.50;99.90;;;;;;5060141;28;20563;-78
2021/05/22 04:09:59;;;;;;;0.70;0.50;;;9.60;99.90;;;;;;5071944;28;20432;-79
2021/05/22 04:12:25;;;;;;;0.70;0.50;;;9.70;99.90;;;;;;5051434;28;20515;-79
2021/05/22 04:14:50;;;;;;;0.70;0.50;;;9.70;99.90;;;;;;5060371;28;20181;-80
2021/05/22 04:17:16;;;;;;;0.70;0.50;;;9.80;99.90;;;;;;5077681;28;20197;-78
2021/05/22 04:19:41;;;;;;;0.70;0.50;;;9.80;99.90;;;;;;5064485;28;20383;-79
2021/05/22 04:22:07;;;;;;;0.70;0.50;;;9.70;99.90;;;;;;5039654;28;20516;-79
2021/05/22 04:24:32;;;;;;;0.70;0.50;;;9.80;99.90;;;;;;5069617;28;20290;-80
2021/05/22 04:26:58;;;;;;;0.70;0.50;;;9.90;99.90;;;;;;5068752;28;20225;-78
2021/05/22 04:29:23;;;;;;;0.70;0.50;;;9.90;99.90;;;;;;5060359;28;20197;-79
2021/05/22 04:31:49;;;;;;;0.70;0.50;;;10.10;99.90;;;;;;5077466;28;20543;-80
2021/05/22 04:34:15;;;;;;;0.70;0.50;;;10.10;99.90;;;;;;5074538;28;20196;-78
2021/05/22 04:36:40;;;;;;;0.70;0.50;;;10.10;99.90;;;;;;5077995;28;20561;-78
2021/05/22 04:39:06;;;;;;;0.70;0.50;;;10.20;99.90;;;;;;5068425;28;20198;-80
2021/05/22 04:41:32;;;;;;;0.70;0.50;;;10.20;99.90;;;;;;5072924;28;20855;-78
2021/05/22 04:43:58;;;;;;;0.70;0.50;;;10.30;99.90;;;;;;5078316;28;20454;-79
2021/05/22 04:46:25;;;;;;;0.70;0.50;;;10.30;99.90;;;;;;5075133;28;20515;-79
2021/05/22 04:48:51;;;;;;;0.70;0.50;;;10.40;99.90;;;;;;5078563;28;20415;-79
2021/05/22 04:51:16;;;;;;;0.70;0.50;;;10.50;99.90;;;;;;5061245;28;20422;-79
2021/05/22 04:53:43;;;;;;;0.70;0.50;;;10.50;99.90;;;;;;5063116;28;20175;-79
2021/05/22 04:56:09;;;;;;;0.70;0.50;;;10.50;99.90;;;;;;5076175;28;20194;-78
2021/05/22 04:58:35;;;;;;;0.70;0.50;;;10.60;99.90;;;;;;5074573;28;20453;-80
2021/05/22 05:01:00;;;;;;;0.70;0.50;;;10.50;99.90;;;;;;5059395;28;20204;-79
2021/05/22 05:03:26;;;;;;;0.70;0.50;;;10.60;99.90;;;;;;5076646;28;20516;-80
2021/05/22 05:05:52;;;;;;;0.70;0.50;;;10.70;99.90;;;;;;5039893;28;20195;-79
2021/05/22 05:08:20;;;;;;;0.70;0.50;;;10.80;99.90;;;;;;5069997;28;20607;-79
2021/05/22 05:10:46;;;;;;;0.70;0.50;;;10.70;99.90;;;;;;5079380;28;20402;-79
2021/05/22 05:13:13;;;;;;;0.70;0.50;;;10.80;99.90;;;;;;5064864;28;20412;-79
2021/05/22 05:15:38;;;;;;;0.70;0.50;;;10.80;99.90;;;;;;5079576;28;20497;-80
2021/05/22 05:18:04;;;;;;;0.70;0.50;;;10.80;99.90;;;;;;5079218;28;20506;-80
2021/05/22 05:20:30;;;;;;;0.70;0.50;;;10.80;99.90;;;;;;5059147;28;20182;-79
2021/05/22 05:22:56;;;;;;;0.70;0.50;;;10.90;99.90;;;;;;5059257;28;20408;-79
2021/05/22 05:25:21;;;;;;;0.70;0.50;;;10.90;99.90;;;;;;5072162;28;20186;-79
2021/05/22 05:27:47;;;;;;;0.70;0.50;;;11.10;99.90;;;;;;5076017;28;20169;-79
2021/05/22 05:30:13;;;;;;;0.70;0.50;;;11.10;99.90;;;;;;5077917;28;20265;-79
2021/05/22 05:32:38;;;;;;;0.70;0.50;;;11.30;99.90;;;;;;5079682;28;20253;-80
2021/05/22 05:35:04;;;;;;;0.70;0.50;;;11.40;99.90;;;;;;5060677;28;20460;-80
2021/05/22 05:37:30;;;;;;;0.70;0.50;;;11.50;99.90;;;;;;5075510;28;20209;-79
2021/05/22 05:39:55;;;;;;;0.70;0.50;;;11.60;99.90;;;;;;5085232;28;20447;-80
2021/05/22 05:42:21;;;;;;;0.70;0.50;;;11.60;99.90;;;;;;5066793;28;20188;-79
2021/05/22 05:44:46;;;;;;;0.70;0.50;;;11.70;99.90;;;;;;5062942;28;20268;-79
2021/05/22 05:47:12;;;;;;;0.70;0.50;;;11.70;99.90;;;;;;5056609;28;20258;-80
2021/05/22 05:49:38;;;;;;;0.70;0.50;;;11.60;99.90;;;;;;5041515;28;20212;-80
2021/05/22 05:52:03;;;;;;;0.70;0.50;;;11.70;99.90;;;;;;5062200;28;20195;-79
2021/05/22 05:54:29;;;;;;;0.70;0.50;;;11.70;99.90;;;;;;5084317;28;20211;-80
2021/05/22 05:56:54;;;;;;;0.70;0.50;;;11.80;99.90;;;;;;5061253;28;20208;-80
2021/05/22 05:59:20;;;;;;;0.70;0.50;;;11.80;99.90;;;;;;5058222;28;20197;-79
2021/05/22 06:01:45;;;;;;;0.70;0.50;;;11.80;99.90;;;;;;5059764;28;20169;-79
2021/05/22 06:04:11;;;;;;;0.70;0.50;;;12.00;99.90;;;;;;5059080;28;20185;-79
2021/05/22 06:06:37;;;;;;;0.70;0.50;;;11.90;99.90;;;;;;5048664;28;20186;-81
2021/05/22 06:09:04;;;;;;;0.83;0.67;;;12.00;99.90;;;;;;5058872;28;20178;-80
2021/05/22 06:11:32;;;;;;;0.70;0.50;;;12.10;99.90;;;;;;5058511;28;20411;-80
2021/05/22 06:13:58;;;;;;;0.70;0.50;;;12.10;99.90;;;;;;5080933;28;20431;-79
2021/05/22 06:16:33;;;;;;;0.70;0.50;;;12.20;99.90;;;;;;5064439;28;20436;-79
2021/05/22 06:18:59;;;;;;;0.70;0.50;;;12.20;99.90;;;;;;5059957;28;20189;-80
2021/05/22 06:21:24;;;;;;;0.70;0.50;;;12.30;99.90;;;;;;5064410;28;20411;-79
2021/05/22 06:23:50;;;;;;;0.70;0.50;;;12.30;99.90;;;;;;5063240;28;20170;-79
2021/05/22 06:26:16;;;;;;;0.70;0.50;;;12.10;99.90;;;;;;5050595;28;20246;-79
2021/05/22 06:28:42;;;;;;;0.70;0.50;;;12.10;99.90;;;;;;5077341;28;20212;-80
2021/05/22 06:31:07;;;;;;;0.70;0.50;;;12.00;99.90;;;;;;5049882;28;20428;-80
2021/05/22 06:33:34;;;;;;;0.70;0.50;;;12.30;99.90;;;;;;5055927;28;20234;-79
2021/05/22 06:36:00;;;;;;;0.70;0.50;;;12.20;99.90;;;;;;5076706;28;20288;-80
2021/05/22 06:38:26;;;;;;;0.70;0.50;;;12.40;99.90;;;;;;5068579;28;20832;-81
2021/05/22 06:40:52;;;;;;;0.70;0.50;;;12.50;99.90;;;;;;5056485;28;20182;-80
2021/05/22 06:43:17;;;;;;;0.70;0.50;;;12.70;99.90;;;;;;5083080;28;20416;-80
2021/05/22 06:45:45;;;;;;;0.70;0.50;;;12.70;99.90;;;;;;5062131;28;20444;-80
2021/05/22 06:48:13;;;;;;;0.70;0.50;;;12.90;99.90;;;;;;5058207;28;20175;-79
2021/05/22 06:50:39;;;;;;;0.70;0.50;;;12.70;99.90;;;;;;5057292;28;20427;-81
2021/05/22 06:53:06;;;;;;;0.70;0.50;;;12.70;99.90;;;;;;5072928;28;20937;-80
2021/05/22 06:55:32;;;;;;;0.70;0.50;;;12.50;99.90;;;;;;5041459;28;20409;-79
2021/05/22 06:57:59;;;;;;;0.70;0.50;;;12.40;99.90;;;;;;5046924;28;20456;-80
2021/05/22 07:00:25;;;;;;;0.70;0.50;;;12.30;99.90;;;;;;5045643;28;20451;-80
2021/05/22 07:02:51;;;;;;;0.70;0.50;;;12.30;99.90;;;;;;5046609;28;20420;-81
2021/05/22 07:05:16;;;;;;;0.70;0.50;;;12.20;99.90;;;;;;5063528;28;20794;-80
2021/05/22 07:07:42;;;;;;;0.70;0.50;;;12.00;99.90;;;;;;5056781;28;20189;-80
2021/05/22 07:10:10;;;;;;;0.70;0.50;;;11.90;99.90;;;;;;5073218;28;20265;-80
2021/05/22 07:12:36;;;;;;;0.70;0.50;;;12.00;99.90;;;;;;5082462;28;20752;-80
2021/05/22 07:15:01;;;;;;;0.70;0.50;;;11.80;99.90;;;;;;5083367;28;20412;-80
2021/05/22 07:17:27;;;;;;;0.70;0.50;;;11.70;99.90;;;;;;5076056;28;20208;-78
2021/05/22 07:19:53;;;;;;;0.70;0.50;;;11.60;99.90;;;;;;5050888;28;20247;-79
2021/05/22 07:22:18;;;;;;;0.70;0.50;;;11.50;99.90;;;;;;5076319;28;20181;-79
2021/05/22 07:24:44;;;;;;;0.70;0.50;;;11.50;99.90;;;;;;5041813;28;20174;-79
2021/05/22 07:27:09;;;;;;;0.70;0.50;;;11.50;99.90;;;;;;5061967;28;20205;-79
2021/05/22 07:29:35;;;;;;;0.70;0.50;;;11.60;99.90;;;;;;5076882;28;20189;-79
2021/05/22 07:32:00;;;;;;;0.70;0.50;;;11.60;99.90;;;;;;5079646;28;20189;-79
2021/05/22 07:34:26;;;;;;;0.70;0.50;;;11.60;99.90;;;;;;5080854;28;20169;-80
2021/05/22 07:36:52;;;;;;;0.70;0.50;;;11.60;99.90;;;;;;5063600;28;20198;-79
2021/05/22 07:39:17;;;;;;;0.70;0.50;;;11.60;99.90;;;;;;5059315;28;20238;-79
2021/05/22 07:41:45;;;;;;;0.70;0.50;;;11.70;99.90;;;;;;5065630;28;20474;-79
2021/05/22 07:44:11;;;;;;;0.70;0.50;;;11.60;99.90;;;;;;5078248;28;20191;-78
2021/05/22 07:46:37;;;;;;;0.70;0.50;;;11.60;99.90;;;;;;5059499;28;20945;-79
2021/05/22 07:49:03;;;;;;;0.70;0.50;;;11.60;99.90;;;;;;5057483;28;20489;-77
2021/05/22 07:51:29;;;;;;;0.70;0.50;;;11.60;99.90;;;;;;5074103;28;20201;-78
2021/05/22 07:53:54;;;;;;;0.70;0.50;;;11.60;99.90;;;;;;5070851;28;20459;-78
2021/05/22 07:56:20;;;;;;;0.70;0.50;;;11.60;99.90;;;;;;5078590;28;20209;-79
2021/05/22 07:58:45;;;;;;;0.70;0.50;;;11.60;99.90;;;;;;5059557;28;20690;-77
2021/05/22 08:01:11;;;;;;;0.70;0.50;;;11.60;99.90;;;;;;5074247;28;20588;-76
2021/05/22 08:03:37;;;;;;;0.70;0.50;;;11.60;99.90;;;;;;5055139;28;20178;-76
2021/05/22 08:06:02;;;;;;;0.70;0.50;;;11.60;99.90;;;;;;5061833;28;20206;-80
2021/05/22 08:08:28;;;;;;;0.70;0.50;;;11.70;99.90;;;;;;5083791;28;20175;-80
2021/05/22 08:10:53;;;;;;;0.70;0.50;;;11.60;99.90;;;;;;5055538;28;20186;-80
2021/05/22 08:13:19;;;;;;;0.70;0.50;;;11.60;99.90;;;;;;5055478;28;20175;-80
2021/05/22 08:15:46;;;;;;;0.70;0.50;;;11.60;99.90;;;;;;5063827;28;20223;-78
2021/05/22 08:18:11;;;;;;;0.70;0.50;;;11.60;99.90;;;;;;5058926;28;20181;-79
2021/05/22 08:20:38;;;;;;;0.70;0.50;;;11.60;99.90;;;;;;5058936;28;20408;-78
2021/05/22 08:23:04;;;;;;;0.70;0.50;;;11.60;99.90;;;;;;5046022;28;20170;-79
2021/05/22 08:25:30;;;;;;;0.70;0.50;;;11.70;99.90;;;;;;5043990;28;20771;-80
2021/05/22 08:27:55;;;;;;;0.70;0.50;;;11.80;99.90;;;;;;5044872;28;20168;-80
2021/05/22 08:30:21;;;;;;;0.70;0.50;;;11.80;99.90;;;;;;5044804;28;20234;-81
2021/05/22 08:32:47;;;;;;;0.70;0.50;;;11.90;99.90;;;;;;5045503;28;20175;-82
2021/05/22 08:35:14;;;;;;;0.70;0.50;;;11.90;99.90;;;;;;5051498;28;20594;-80
2021/05/22 08:37:40;;;;;;;0.70;0.50;;;12.00;99.90;;;;;;5064870;28;20489;-80
2021/05/22 08:40:07;;;;;;;0.70;0.50;;;12.10;99.90;;;;;;5064389;28;20478;-79
2021/05/22 08:42:34;;;;;;;0.70;0.50;;;12.20;99.90;;;;;;5063727;28;20412;-80
2021/05/22 08:45:10;;;;;;;0.70;0.50;;;12.30;99.90;;;;;;5065052;28;20411;-81
2021/05/22 08:47:36;;;;;;;0.70;0.50;;;12.10;99.90;;;;;;5082317;28;20481;-80
2021/05/22 08:50:05;;;;;;;0.70;0.50;;;12.10;99.90;;;;;;5067099;28;20809;-81
2021/05/22 08:52:30;;;;;;;0.70;0.50;;;12.10;99.90;;;;;;5066930;28;20423;-79
2021/05/22 08:54:56;;;;;;;0.70;0.50;;;12.10;99.90;;;;;;5066031;28;20473;-80
2021/05/22 08:57:22;;;;;;;0.70;0.50;;;12.00;99.90;;;;;;5065721;28;20198;-80
2021/05/22 08:59:48;;;;;;;0.70;0.50;;;12.00;99.90;;;;;;5064875;28;20232;-81
2021/05/22 09:02:20;;;;;;;0.70;0.50;;;12.00;99.90;;;;;;5067222;28;20176;-82
2021/05/22 09:05:24;;;;;;;0.70;0.50;;;12.00;99.90;;;;;;5065870;28;20416;-80
2021/05/22 09:07:52;;;;;;;0.70;0.50;;;12.00;99.90;;;;;;5065265;28;20400;-80
2021/05/22 09:10:22;;;;;;;0.70;0.50;;;11.90;99.90;;;;;;5065110;28;20439;-80
2021/05/22 09:12:50;;;;;;;0.70;0.50;;;12.00;99.90;;;;;;5083020;28;20400;-80
2021/05/22 09:15:21;;;;;;;0.70;0.50;;;12.10;99.90;;;;;;5082265;28;20436;-80
2021/05/22 09:17:57;;;;;;;0.70;0.50;;;12.00;99.90;;;;;;5064822;28;20447;-79
2021/05/22 09:20:35;;;;;;;0.70;0.50;;;12.00;99.90;;;;;;5064467;28;20448;-80
2021/05/22 09:23:10;;;;;;;0.70;0.50;;;12.10;99.90;;;;;;5064011;28;20463;-80
2021/05/22 09:25:41;;;;;;;0.70;0.50;;;12.20;99.90;;;;;;5081667;28;20407;-80
2021/05/22 09:28:07;;;;;;;0.70;0.50;;;12.30;99.90;;;;;;5064507;28;20832;-81
2021/05/22 09:30:35;;;;;;;0.70;0.50;;;12.40;99.90;;;;;;5063589;28;21125;-80
2021/05/22 09:33:00;;;;;;;0.70;0.50;;;12.30;99.90;;;;;;5063680;28;20410;-81
2021/05/22 09:35:27;;;;;;;0.70;0.50;;;12.30;99.90;;;;;;5060635;28;20410;-79
2021/05/22 09:37:58;;;;;;;0.70;0.50;;;12.30;99.90;;;;;;5058609;28;20186;-79
2021/05/22 09:40:33;;;;;;;0.70;0.50;;;12.30;99.90;;;;;;5063026;28;20452;-80
2021/05/22 09:43:00;;;;;;;0.70;0.50;;;12.20;99.90;;;;;;5054660;28;20830;-80
2021/05/22 09:45:27;;;;;;;0.70;0.50;;;12.30;99.90;;;;;;5063637;28;20897;-79
2021/05/22 09:47:55;;;;;;;0.70;0.50;;;12.40;99.90;;;;;;5081737;28;20400;-80
2021/05/22 09:50:34;;;;;;;0.70;0.50;;;12.40;99.90;;;;;;5063651;28;20781;-80
2021/05/22 09:53:02;;;;;;;0.70;0.50;;;12.60;99.90;;;;;;5080724;28;20415;-79
2021/05/22 09:55:28;;;;;;;0.70;0.50;;;12.70;99.90;;;;;;5081435;28;20408;-79
2021/05/22 09:57:56;;;;;;;0.70;0.50;;;12.80;99.90;;;;;;5064017;28;20412;-79
2021/05/22 10:00:24;;;;;;;0.70;0.50;;;12.90;99.90;;;;;;5063471;28;20463;-81
2021/05/22 10:02:57;;;;;;;0.70;0.50;;;13.00;99.90;;;;;;5063869;28;21050;-79
2021/05/22 10:05:33;;;;;;;0.70;0.50;;;12.90;99.90;;;;;;5062976;28;20462;-80
2021/05/22 10:08:03;;;;;;;0.70;0.50;;;13.00;99.90;;;;;;5065135;28;20446;-80
2021/05/22 10:10:46;;;;;;;0.70;0.50;;;13.10;99.90;;;;;;5081956;28;20411;-79
2021/05/22 10:13:12;;;;;;;0.70;0.50;;;13.10;99.90;;;;;;5064101;28;20778;-79
2021/05/22 10:15:38;;;;;;;0.70;0.50;;;13.20;99.90;;;;;;5082017;28;20425;-81
2021/05/22 10:18:05;;;;;;;0.70;0.50;;;13.30;99.90;;;;;;5065497;28;20498;-81
2021/05/22 10:20:31;;;;;;;0.70;0.50;;;13.40;99.90;;;;;;5084738;28;20471;-79
2021/05/22 10:22:57;;;;;;;0.70;0.50;;;13.40;99.90;;;;;;5055703;28;20775;-80
2021/05/22 10:25:22;;;;;;;0.70;0.50;;;13.50;99.90;;;;;;5059327;28;20174;-80
2021/05/22 10:27:48;;;;;;;0.70;0.50;;;13.60;99.90;;;;;;5083241;28;20182;-80
2021/05/22 10:30:17;;;;;;;0.70;0.50;;;13.80;99.90;;;;;;5063366;28;20175;-80
2021/05/22 10:32:43;;;;;;;0.70;0.50;;;13.80;99.90;;;;;;5046052;28;20431;-80
2021/05/22 10:35:10;;;;;;;0.70;0.50;;;13.90;99.90;;;;;;5051713;28;20489;-78
2021/05/22 10:37:45;;;;;;;0.70;0.50;;;13.90;99.90;;;;;;5049413;28;20449;-81
2021/05/22 10:40:13;;;;;;;0.70;0.50;;;13.90;99.90;;;;;;5045687;28;20509;-80
2021/05/22 10:42:38;;;;;;;0.70;0.50;;;14.10;99.90;;;;;;5058785;28;20774;-80
2021/05/22 10:45:25;;;;;;;0.70;0.50;;;14.40;99.90;;;;;;5056495;28;20426;-79
2021/05/22 10:47:51;;;;;;;0.70;0.50;;;14.70;99.90;;;;;;5065087;28;20213;-80
2021/05/22 10:50:40;;;;;;;0.70;0.50;;;14.60;99.90;;;;;;5045185;28;20417;-80
2021/05/22 10:53:19;;;;;;;0.80;0.50;;;14.60;99.90;;;;;;5046760;28;20187;-80
2021/05/22 10:56:01;;;;;;;0.70;0.50;;;14.40;99.90;;;;;;5063853;28;20424;-79
2021/05/22 10:58:27;;;;;;;0.70;0.50;;;14.20;99.90;;;;;;5065423;28;20429;-80
2021/05/22 11:01:25;;;;;;;0.70;0.50;;;14.20;99.90;;;;;;5046225;28;20417;-80
2021/05/22 11:04:18;;;;;;;0.70;0.50;;;14.20;99.90;;;;;;5063574;28;20179;-81
2021/05/22 11:06:47;;;;;;;0.70;0.50;;;14.10;99.90;;;;;;5063810;28;20452;-79
2021/05/22 11:09:25;;;;;;;0.70;0.50;;;14.10;99.90;;;;;;5045039;28;20852;-80
2021/05/22 11:11:54;;;;;;;0.70;0.50;;;14.30;99.90;;;;;;5063786;28;20401;-78
2021/05/22 11:14:47;;;;;;;0.70;0.50;;;14.00;99.90;;;;;;5064250;28;20447;-79
2021/05/22 11:17:22;;;;;;;0.70;0.50;;;13.90;99.90;;;;;;5051778;28;20440;-79
2021/05/22 11:22:25;;;;;;;0.70;0.60;;;13.90;99.90;;;;;;5062820;28;20410;-80
2021/05/22 11:25:08;;;;;;;0.70;0.50;;;13.80;99.90;;;;;;5044379;28;20779;-79
2021/05/22 11:27:51;;;;;;;0.70;0.50;;;13.70;99.90;;;;;;5044366;28;20437;-80
2021/05/22 11:30:21;;;;;;;0.70;0.50;;;13.60;99.90;;;;;;5045192;28;20413;-81
2021/05/22 11:32:53;;;;;;;0.70;0.50;;;13.70;99.90;;;;;;5064144;28;20962;-80
2021/05/22 11:35:31;;;;;;;0.70;0.50;;;13.60;99.90;;;;;;5049983;28;20437;-80
2021/05/22 11:38:12;;;;;;;0.70;0.50;;;13.60;99.90;;;;;;5066195;28;20424;-79
2021/05/22 11:40:40;;;;;;;0.70;0.50;;;13.60;99.90;;;;;;5065391;28;21007;-80
2021/05/22 11:43:12;;;;;;;0.70;0.50;;;13.60;99.90;;;;;;5055873;28;20424;-79
2021/05/22 11:45:42;;;;;;;0.70;0.50;;;13.60;99.90;;;;;;5068652;28;20519;-80
2021/05/22 11:48:32;;;;;;;0.70;0.50;;;13.50;99.90;;;;;;5066338;28;20412;-78
2021/05/22 11:50:58;;;;;;;0.70;0.50;;;13.50;99.90;;;;;;5076327;28;20425;-80
2021/05/22 11:53:28;;;;;;;0.70;0.50;;;13.30;99.90;;;;;;5061802;28;20421;-80
2021/05/22 11:56:20;;;;;;;0.70;0.50;;;13.40;99.90;;;;;;5067178;28;20289;-80
2021/05/22 11:58:49;;;;;;;0.70;0.50;;;13.40;99.90;;;;;;5048167;28;20484;-80
2021/05/22 12:01:19;;;;;;;0.70;0.50;;;13.40;99.90;;;;;;5047317;28;20421;-81
2021/05/22 12:03:47;;;;;;;0.70;0.50;;;13.30;99.90;;;;;;5067548;28;20417;-80
2021/05/22 12:06:24;;;;;;;0.70;0.50;;;13.30;99.90;;;;;;5049650;28;20467;-79
2021/05/22 12:09:25;;;;;;;0.70;0.50;;;13.50;99.90;;;;;;5049968;28;20800;-80
2021/05/22 12:12:13;;;;;;;0.70;0.50;;;13.50;99.90;;;;;;5065442;28;20427;-81
2021/05/22 12:14:44;;;;;;;0.70;0.50;;;13.60;99.90;;;;;;5058383;28;20433;-80
2021/05/22 12:17:12;;;;;;;0.70;0.50;;;13.80;99.90;;;;;;5080354;28;20454;-78
2021/05/22 12:19:39;;;;;;;0.70;0.50;;;13.80;99.90;;;;;;5071598;28;20472;-79
2021/05/22 12:22:05;;;;;;;0.70;0.50;;;13.70;99.90;;;;;;5065109;28;20418;-80
2021/05/22 12:24:31;;;;;;;0.70;0.50;;;13.80;99.90;;;;;;5082451;28;20413;-81
2021/05/22 12:26:59;;;;;;;0.70;0.50;;;13.90;99.90;;;;;;5066117;28;20198;-80
2021/05/22 12:29:26;;;;;;;0.70;0.50;;;13.90;99.90;;;;;;5062856;28;20425;-80
2021/05/22 12:32:01;;;;;;;0.70;0.50;;;13.80;99.90;;;;;;5064362;28;20424;-80
2021/05/22 12:34:31;;;;;;;0.70;0.50;;;14.00;99.90;;;;;;5065099;28;20424;-81
2021/05/22 12:37:14;;;;;;;0.70;0.50;;;14.10;99.90;;;;;;5088626;28;20443;-81
2021/05/22 12:39:44;;;;;;;0.70;0.50;;;14.10;99.90;;;;;;5060050;28;20459;-79
2021/05/22 12:42:16;;;;;;;0.70;0.50;;;14.10;99.90;;;;;;5053217;28;20898;-80
2021/05/22 12:44:42;;;;;;;0.70;0.50;;;14.10;99.90;;;;;;5049600;28;20420;-80
2021/05/22 12:47:07;;;;;;;0.70;0.50;;;14.00;99.90;;;;;;5083341;28;20492;-80
2021/05/22 12:49:33;;;;;;;0.70;0.50;;;14.00;99.90;;;;;;5065192;28;20171;-79
2021/05/22 12:52:05;;;;;;;0.70;0.50;;;14.00;99.90;;;;;;5068282;28;20162;-78
2021/05/22 12:54:32;;;;;;;0.70;0.50;;;14.00;99.90;;;;;;5052157;28;20186;-79
2021/05/22 12:57:09;;;;;;;0.70;0.50;;;14.10;99.90;;;;;;5049122;28;20542;-80